Time;durP1;ratioP1;P1;durP2;ratioP2;P2;SDS_P1;SDS_P2;PMS_P1;PMS_P2;Temp;Humidity;BMP_temperature;BMP_pressure;BME280_temperature;BME280_humidity;BME280_pressure;Samples;Min_cycle;Max_cycle;Signal;HPM_P1;HPM_P2
2021/04/01 00:00:54;;;;;;;12.25;3.13;;;12.30;90.20;;;;;;5051811;28;20496;-86
2021/04/01 00:03:19;;;;;;;8.02;3.53;;;12.30;90.10;;;;;;5051804;28;20025;-87
2021/04/01 00:05:45;;;;;;;9.52;3.30;;;12.10;90.40;;;;;;5053102;28;20437;-87
2021/04/01 00:08:11;;;;;;;7.22;3.25;;;12.10;90.60;;;;;;5051947;28;20051;-88
2021/04/01 00:10:39;;;;;;;9.95;3.00;;;12.10;90.70;;;;;;5051785;28;20017;-87
2021/04/01 00:13:06;;;;;;;8.38;3.22;;;12.10;90.70;;;;;;5053634;28;20096;-87
2021/04/01 00:15:38;;;;;;;9.80;3.33;;;12.20;91.00;;;;;;5051646;28;20067;-87
2021/04/01 00:18:10;;;;;;;10.60;3.25;;;12.20;90.60;;;;;;5053019;28;20075;-87
2021/04/01 00:20:35;;;;;;;6.45;3.20;;;12.10;90.80;;;;;;5053023;28;20021;-87
2021/04/01 00:23:01;;;;;;;6.53;2.92;;;12.10;90.80;;;;;;5051650;28;20468;-88
2021/04/01 00:25:27;;;;;;;8.23;2.63;;;12.00;91.00;;;;;;5051641;28;20025;-87
2021/04/01 00:27:53;;;;;;;9.18;3.42;;;12.10;90.90;;;;;;5046190;28;20091;-87
2021/04/01 00:30:19;;;;;;;5.25;2.88;;;12.00;91.00;;;;;;5015231;28;20056;-88
2021/04/01 00:32:46;;;;;;;10.40;3.10;;;11.90;91.30;;;;;;5015161;28;20038;-87
2021/04/01 00:35:12;;;;;;;8.07;3.50;;;12.00;91.10;;;;;;5034089;28;20018;-87
2021/04/01 00:37:38;;;;;;;8.52;3.17;;;11.90;91.30;;;;;;5036462;28;20040;-88
2021/04/01 00:40:05;;;;;;;7.78;3.47;;;11.90;91.40;;;;;;5018638;28;20392;-87
2021/04/01 00:42:33;;;;;;;6.35;3.17;;;11.90;91.60;;;;;;5018588;28;20029;-87
2021/04/01 00:45:10;;;;;;;8.43;3.08;;;11.90;91.40;;;;;;5018641;28;20029;-87
2021/04/01 00:47:41;;;;;;;6.47;2.78;;;11.90;91.60;;;;;;5018516;28;20025;-87
2021/04/01 00:50:10;;;;;;;7.70;2.95;;;11.90;91.60;;;;;;5018528;28;20111;-87
2021/04/01 00:52:37;;;;;;;8.07;3.08;;;12.00;91.40;;;;;;5018312;28;20017;-88
2021/04/01 00:55:05;;;;;;;8.73;3.05;;;12.00;91.50;;;;;;5018728;28;20116;-87
2021/04/01 00:57:31;;;;;;;5.93;3.00;;;12.00;91.60;;;;;;5018315;28;20100;-87
2021/04/01 00:59:57;;;;;;;6.80;3.17;;;11.90;91.60;;;;;;5018256;28;20059;-87
2021/04/01 01:02:23;;;;;;;6.97;2.83;;;11.90;91.60;;;;;;5018367;28;20071;-87
2021/04/01 01:04:50;;;;;;;9.13;3.50;;;11.80;91.60;;;;;;5018212;28;20052;-88
2021/04/01 01:07:16;;;;;;;10.30;3.47;;;11.90;91.70;;;;;;5018053;28;20121;-88
2021/04/01 01:09:41;;;;;;;6.65;3.60;;;11.80;91.70;;;;;;5018135;28;20457;-87
2021/04/01 01:12:08;;;;;;;6.28;3.25;;;11.80;91.80;;;;;;5035817;28;20095;-87
2021/04/01 01:14:35;;;;;;;14.85;3.60;;;12.00;91.70;;;;;;5035808;28;20432;-88
2021/04/01 01:17:01;;;;;;;6.35;3.42;;;11.80;91.60;;;;;;5017941;28;20070;-87
2021/04/01 01:19:31;;;;;;;10.38;3.50;;;11.80;91.90;;;;;;5018000;28;20120;-87
2021/04/01 01:21:57;;;;;;;8.95;3.53;;;11.80;91.90;;;;;;5018028;28;20021;-88
2021/04/01 01:24:23;;;;;;;7.25;3.10;;;11.70;92.00;;;;;;5017933;28;20022;-88
2021/04/01 01:26:48;;;;;;;8.85;3.38;;;11.60;92.10;;;;;;5017894;28;20361;-88
2021/04/01 01:29:14;;;;;;;7.93;3.10;;;11.50;92.50;;;;;;5049407;28;20045;-87
2021/04/01 01:31:46;;;;;;;11.05;3.42;;;11.50;92.70;;;;;;5054141;28;20039;-87
2021/04/01 01:34:12;;;;;;;9.55;3.20;;;11.50;92.60;;;;;;5054221;28;20493;-88
2021/04/01 01:36:37;;;;;;;9.60;3.40;;;11.60;92.50;;;;;;5054084;28;20039;-88
2021/04/01 01:39:04;;;;;;;6.22;2.97;;;11.50;92.60;;;;;;5054084;28;20358;-88
2021/04/01 01:41:29;;;;;;;7.85;2.75;;;11.40;92.90;;;;;;5053963;28;20029;-88
2021/04/01 01:43:57;;;;;;;7.72;3.30;;;11.50;93.00;;;;;;5054024;28;20055;-88
2021/04/01 01:46:23;;;;;;;9.57;3.15;;;11.50;92.80;;;;;;5053913;28;20029;-87
2021/04/01 01:48:49;;;;;;;9.50;3.25;;;11.70;92.70;;;;;;5053812;28;20039;-87
2021/04/01 01:51:14;;;;;;;10.77;3.45;;;11.70;92.60;;;;;;5053717;28;20103;-87
2021/04/01 01:53:40;;;;;;;7.18;3.15;;;11.60;92.60;;;;;;5054100;28;20028;-87
2021/04/01 01:56:06;;;;;;;9.82;3.33;;;11.70;92.70;;;;;;5053779;28;20425;-87
2021/04/01 01:58:32;;;;;;;46.03;16.77;;;11.70;92.70;;;;;;5053649;28;20025;-89
2021/04/01 02:00:58;;;;;;;68.90;26.20;;;11.60;92.70;;;;;;5053703;28;20056;-87
2021/04/01 02:03:25;;;;;;;10.13;3.75;;;11.40;92.90;;;;;;5055456;28;20039;-88
2021/04/01 02:05:51;;;;;;;10.40;4.10;;;11.50;93.00;;;;;;5053579;28;20029;-86
2021/04/01 02:08:18;;;;;;;8.35;3.97;;;11.60;92.90;;;;;;5053451;28;20430;-87
2021/04/01 02:10:46;;;;;;;9.30;3.83;;;11.70;92.80;;;;;;5053408;28;20021;-87
2021/04/01 02:13:19;;;;;;;8.98;3.75;;;11.50;92.60;;;;;;5053342;28;20039;-87
2021/04/01 02:15:47;;;;;;;11.98;4.40;;;11.50;93.00;;;;;;5053302;28;20021;-87
2021/04/01 02:18:16;;;;;;;13.50;3.72;;;11.60;92.90;;;;;;5053311;28;20075;-87
2021/04/01 02:20:48;;;;;;;9.65;4.03;;;11.70;92.80;;;;;;5053475;28;20036;-87
2021/04/01 02:23:28;;;;;;;11.50;3.65;;;11.50;92.90;;;;;;5053212;28;20079;-88
2021/04/01 02:25:55;;;;;;;7.50;3.47;;;11.50;93.20;;;;;;5053152;28;20544;-87
2021/04/01 02:28:23;;;;;;;7.10;4.00;;;11.50;93.10;;;;;;5052876;28;20045;-87
2021/04/01 02:30:51;;;;;;;14.30;3.85;;;11.40;93.00;;;;;;5053076;28;20063;-88
2021/04/01 02:33:22;;;;;;;7.68;3.55;;;11.10;93.40;;;;;;5053171;28;20023;-87
2021/04/01 02:35:47;;;;;;;9.32;3.47;;;11.00;94.00;;;;;;5053062;28;20476;-86
2021/04/01 02:38:14;;;;;;;6.55;3.50;;;11.00;94.20;;;;;;5053008;28;20075;-86
2021/04/01 02:40:40;;;;;;;7.32;3.60;;;11.10;94.20;;;;;;5052881;28;20488;-87
2021/04/01 02:43:07;;;;;;;9.50;3.80;;;11.30;93.80;;;;;;5052874;28;20032;-87
2021/04/01 02:45:33;;;;;;;9.50;4.18;;;11.20;93.90;;;;;;5052806;28;20063;-87
2021/04/01 02:48:00;;;;;;;9.13;3.67;;;11.20;93.90;;;;;;5053956;28;20048;-87
2021/04/01 02:50:26;;;;;;;10.40;3.58;;;11.00;94.10;;;;;;5052758;28;20123;-87
2021/04/01 02:52:52;;;;;;;9.77;3.50;;;10.90;94.10;;;;;;5054009;28;20483;-87
2021/04/01 02:55:18;;;;;;;8.88;3.30;;;11.20;94.30;;;;;;5052611;28;20021;-87
2021/04/01 02:57:44;;;;;;;7.20;3.75;;;11.20;94.10;;;;;;5052227;28;20036;-87
2021/04/01 03:00:19;;;;;;;8.93;3.60;;;11.20;93.90;;;;;;5052575;28;20104;-87
2021/04/01 03:02:48;;;;;;;7.18;3.30;;;11.20;94.10;;;;;;5053798;28;20029;-88
2021/04/01 03:05:13;;;;;;;8.15;4.00;;;11.10;94.30;;;;;;5052460;28;20071;-87
2021/04/01 03:07:40;;;;;;;8.20;3.38;;;11.10;94.40;;;;;;5052345;28;20432;-87
2021/04/01 03:10:11;;;;;;;5.38;3.45;;;11.10;94.40;;;;;;5052412;28;20021;-87
2021/04/01 03:12:38;;;;;;;7.85;3.38;;;11.10;94.40;;;;;;5052349;28;20025;-87
2021/04/01 03:15:05;;;;;;;8.25;3.50;;;11.20;94.00;;;;;;5052365;28;20021;-87
2021/04/01 03:17:31;;;;;;;6.45;3.17;;;11.20;94.40;;;;;;5052120;28;20092;-87
2021/04/01 03:19:56;;;;;;;11.20;3.45;;;11.30;94.30;;;;;;5052334;28;20037;-87
2021/04/01 03:22:22;;;;;;;8.77;3.70;;;11.20;94.20;;;;;;5053524;28;20032;-86
2021/04/01 03:24:48;;;;;;;9.50;3.70;;;11.10;94.10;;;;;;5052303;28;20482;-87
2021/04/01 03:27:14;;;;;;;11.35;3.95;;;11.00;94.50;;;;;;5050900;28;20044;-88
2021/04/01 03:29:39;;;;;;;8.27;3.85;;;11.00;94.50;;;;;;5015973;28;20473;-87
2021/04/01 03:32:05;;;;;;;6.13;3.50;;;10.80;94.60;;;;;;5015893;28;20091;-87
2021/04/01 03:34:31;;;;;;;8.40;4.38;;;10.90;95.00;;;;;;5015714;28;20025;-87
2021/04/01 03:36:57;;;;;;;11.10;3.92;;;10.80;94.90;;;;;;5016036;28;20029;-87
2021/04/01 03:39:23;;;;;;;6.63;3.38;;;10.70;95.00;;;;;;5033771;28;20451;-88
2021/04/01 03:41:49;;;;;;;8.65;3.25;;;10.70;95.50;;;;;;5015660;28;20033;-87
2021/04/01 03:44:14;;;;;;;7.90;3.80;;;10.90;95.20;;;;;;5015674;28;20026;-87
2021/04/01 03:46:40;;;;;;;7.53;3.47;;;10.90;94.80;;;;;;5033303;28;20057;-87
2021/04/01 03:49:06;;;;;;;7.05;3.42;;;10.80;95.30;;;;;;5015582;28;20109;-88
2021/04/01 03:51:32;;;;;;;9.80;4.20;;;11.10;95.20;;;;;;5015708;28;20624;-87
2021/04/01 03:53:58;;;;;;;7.70;3.53;;;11.10;94.60;;;;;;5015716;28;20032;-87
2021/04/01 03:56:23;;;;;;;6.43;3.50;;;11.00;95.00;;;;;;5015494;28;20017;-87
2021/04/01 03:59:05;;;;;;;8.20;3.63;;;11.10;95.00;;;;;;5033447;28;20108;-87
2021/04/01 04:01:51;;;;;;;8.88;3.50;;;11.10;94.80;;;;;;5015626;28;20400;-88
2021/04/01 04:09:54;;;;;;;5.78;3.33;;;11.00;95.10;;;;;;5033165;28;20025;-87
2021/04/01 04:15:09;;;;;;;8.27;3.67;;;10.90;95.40;;;;;;5037585;28;20032;-87
2021/04/01 04:17:35;;;;;;;7.72;3.40;;;11.00;95.30;;;;;;5019262;28;20030;-87
2021/04/01 04:20:00;;;;;;;12.98;4.20;;;11.00;95.30;;;;;;5019150;28;20071;-87
2021/04/01 04:22:26;;;;;;;8.10;3.65;;;10.80;95.20;;;;;;5019027;28;20112;-87
2021/04/01 04:24:54;;;;;;;15.68;4.65;;;10.70;95.50;;;;;;5037389;28;20480;-88
2021/04/01 04:30:02;;;;;;;9.00;4.10;;;10.50;96.10;;;;;;5037016;28;20025;-87
2021/04/01 04:32:31;;;;;;;7.97;3.50;;;10.40;96.30;;;;;;5018936;28;20026;-87
2021/04/01 04:34:57;;;;;;;8.50;3.28;;;10.50;96.50;;;;;;5036616;28;20014;-87
2021/04/01 04:37:23;;;;;;;9.85;3.20;;;10.60;96.10;;;;;;5036561;28;20384;-88
2021/04/01 04:39:49;;;;;;;9.57;4.25;;;10.70;95.90;;;;;;5018723;28;20033;-87
2021/04/01 04:42:16;;;;;;;9.60;3.97;;;10.70;95.80;;;;;;5018764;28;20099;-88
2021/04/01 04:44:41;;;;;;;6.50;4.10;;;10.50;96.10;;;;;;5020161;28;20032;-88
2021/04/01 04:47:07;;;;;;;9.05;3.42;;;10.30;96.50;;;;;;5021203;28;20017;-88
2021/04/01 04:49:33;;;;;;;8.35;3.85;;;10.20;97.30;;;;;;5020876;28;20025;-88
2021/04/01 04:52:00;;;;;;;9.80;3.75;;;10.40;97.00;;;;;;5021114;28;20093;-87
2021/04/01 04:54:30;;;;;;;6.18;3.30;;;10.50;96.90;;;;;;5021809;28;20116;-88
2021/04/01 04:56:59;;;;;;;7.18;3.40;;;10.60;96.70;;;;;;5039190;28;20025;-88
2021/04/01 05:04:51;;;;;;;14.65;3.97;;;10.20;97.20;;;;;;5038532;28;20032;-87
2021/04/01 05:07:17;;;;;;;5.20;3.05;;;10.30;97.10;;;;;;5020676;28;20037;-86
2021/04/01 05:09:43;;;;;;;5.97;3.55;;;10.30;97.50;;;;;;5039451;28;20017;-86
2021/04/01 05:12:09;;;;;;;11.05;4.00;;;10.60;97.10;;;;;;5039273;28;20021;-85
2021/04/01 05:14:35;;;;;;;6.32;3.65;;;10.80;96.70;;;;;;5038404;28;20049;-86
2021/04/01 05:17:00;;;;;;;11.98;4.38;;;10.80;96.60;;;;;;5020004;28;20021;-87
2021/04/01 05:19:27;;;;;;;9.40;3.70;;;10.60;96.60;;;;;;5020834;28;20029;-87
2021/04/01 05:21:57;;;;;;;12.10;4.15;;;10.40;97.00;;;;;;5020397;28;20500;-87
2021/04/01 05:24:24;;;;;;;11.32;3.78;;;10.50;97.30;;;;;;5038156;28;20025;-87
2021/04/01 05:29:28;;;;;;;10.20;4.20;;;10.60;97.10;;;;;;5039342;28;20424;-87
2021/04/01 05:31:55;;;;;;;7.35;3.42;;;10.60;97.00;;;;;;5039114;28;20044;-86
2021/04/01 05:34:23;;;;;;;6.18;2.92;;;10.70;97.10;;;;;;5021061;28;20021;-87
2021/04/01 05:36:49;;;;;;;7.90;3.53;;;10.70;97.10;;;;;;5020560;28;20021;-87
2021/04/01 05:39:19;;;;;;;7.63;3.45;;;11.00;96.80;;;;;;5019293;28;20036;-87
2021/04/01 05:41:50;;;;;;;7.80;3.45;;;10.80;97.30;;;;;;5019275;28;20052;-86
2021/04/01 06:05:46;;;;;;;7.47;3.50;;;11.20;97.60;;;;;;5036468;28;20277;-87
2021/04/01 06:08:21;;;;;;;9.02;3.35;;;11.30;97.30;;;;;;5018696;28;20117;-87
2021/04/01 06:10:50;;;;;;;11.48;3.92;;;11.40;97.10;;;;;;5018944;28;20024;-87
2021/04/01 06:13:18;;;;;;;6.45;3.53;;;11.60;96.90;;;;;;5018531;28;20045;-87
2021/04/01 06:15:53;;;;;;;7.07;3.92;;;11.60;96.70;;;;;;5018138;28;20021;-88
2021/04/01 06:18:21;;;;;;;10.23;3.47;;;11.40;97.30;;;;;;5036018;28;20080;-87
2021/04/01 06:20:51;;;;;;;9.65;3.92;;;11.50;97.40;;;;;;5017847;28;20021;-87
2021/04/01 06:23:31;;;;;;;9.32;3.90;;;11.70;97.40;;;;;;5036159;28;20380;-87
2021/04/01 06:25:58;;;;;;;8.98;3.90;;;11.50;97.90;;;;;;5018159;28;20432;-87
2021/04/01 06:28:47;;;;;;;9.70;4.03;;;11.60;97.80;;;;;;5035638;28;20492;-87
2021/04/01 06:31:19;;;;;;;8.65;3.58;;;11.90;97.60;;;;;;5054776;28;20542;-87
2021/04/01 06:33:49;;;;;;;6.05;3.30;;;12.00;97.40;;;;;;5055745;28;20013;-87
2021/04/01 06:36:24;;;;;;;9.38;3.75;;;12.20;97.20;;;;;;5054714;28;20086;-87
2021/04/01 06:38:50;;;;;;;6.68;3.10;;;12.30;97.50;;;;;;5054845;28;20476;-87
2021/04/01 06:41:23;;;;;;;8.27;3.20;;;12.30;97.10;;;;;;5054877;28;20040;-86
2021/04/01 06:43:49;;;;;;;11.98;3.53;;;12.40;97.30;;;;;;5054263;28;20116;-87
2021/04/01 06:46:17;;;;;;;8.80;3.08;;;12.50;97.20;;;;;;5054652;28;20059;-87
2021/04/01 06:51:44;;;;;;;12.20;3.40;;;12.70;96.90;;;;;;5055782;28;20017;-88
2021/04/01 06:54:16;;;;;;;8.80;3.35;;;12.70;97.10;;;;;;5055491;28;20550;-87
2021/04/01 06:57:04;;;;;;;12.07;4.07;;;12.90;97.30;;;;;;5055637;28;20097;-87
2021/04/01 07:04:42;;;;;;;12.52;3.50;;;13.30;96.80;;;;;;5055431;28;20021;-87
2021/04/01 07:07:21;;;;;;;11.35;3.88;;;13.40;97.00;;;;;;5053502;28;20025;-87
2021/04/01 07:12:39;;;;;;;11.27;3.42;;;13.50;97.00;;;;;;5056365;28;20021;-86
2021/04/01 07:15:16;;;;;;;11.07;3.00;;;13.70;97.40;;;;;;5053843;28;20017;-86
2021/04/01 07:17:44;;;;;;;11.82;3.20;;;13.90;96.90;;;;;;5053500;28;20025;-86
2021/04/01 07:47:19;;;;;;;11.50;3.15;;;15.50;95.70;;;;;;5038718;28;20041;-86
2021/04/01 07:49:47;;;;;;;8.80;3.50;;;15.60;96.00;;;;;;5020961;28;20473;-85
2021/04/01 07:52:14;;;;;;;11.65;3.85;;;15.70;95.60;;;;;;5021066;28;20017;-85
2021/04/01 08:00:31;;;;;;;11.07;3.05;;;16.40;95.10;;;;;;5023099;28;20424;-87
2021/04/01 08:05:33;;;;;;;13.30;3.22;;;16.90;94.10;;;;;;5038401;28;20049;-85
2021/04/01 08:08:06;;;;;;;;;;;17.10;93.90;;;;;;5038773;28;20033;-86
2021/04/01 08:10:44;;;;;;;11.15;3.20;;;17.40;94.20;;;;;;5020840;28;19955;-86
2021/04/01 08:13:13;;;;;;;9.18;2.90;;;17.60;93.60;;;;;;5020882;28;20101;-86
2021/04/01 08:15:54;;;;;;;11.48;3.40;;;17.80;93.10;;;;;;5020476;28;20071;-86
2021/04/01 08:20:54;;;;;;;7.18;2.20;;;18.10;90.00;;;;;;5038007;28;20057;-87
2021/04/01 08:23:36;;;;;;;13.63;3.00;;;18.40;90.00;;;;;;5019912;28;20036;-86
2021/04/01 08:28:46;;;;;;;11.07;3.20;;;18.60;87.10;;;;;;5037163;28;20049;-86
2021/04/01 08:36:26;;;;;;;8.35;2.40;;;19.00;83.80;;;;;;5037373;28;20022;-87
2021/04/01 08:38:53;;;;;;;10.45;2.63;;;18.80;84.20;;;;;;5019726;28;20045;-90
2021/04/01 08:41:39;;;;;;;8.25;2.60;;;18.80;83.80;;;;;;5019433;28;20029;-86
2021/04/01 08:44:35;;;;;;;8.93;2.33;;;19.10;84.40;;;;;;5019692;28;20037;-86
2021/04/01 08:47:27;;;;;;;6.10;2.45;;;19.40;82.50;;;;;;5019699;28;20079;-86
2021/04/01 08:50:28;;;;;;;11.00;2.70;;;19.50;81.20;;;;;;5019515;28;20033;-86
2021/04/01 08:53:24;;;;;;;9.60;2.40;;;19.70;79.50;;;;;;5019504;28;20424;-86
2021/04/01 08:56:19;;;;;;;16.83;2.97;;;19.80;79.00;;;;;;5018206;28;20029;-86
2021/04/01 08:59:06;;;;;;;5.95;2.40;;;20.00;78.90;;;;;;5037051;28;20028;-86
2021/04/01 09:01:35;;;;;;;10.95;2.65;;;20.40;78.20;;;;;;5018819;28;20022;-87
2021/04/01 09:04:02;;;;;;;10.30;2.28;;;20.50;76.20;;;;;;5018988;28;20082;-87
2021/04/01 09:06:34;;;;;;;10.73;2.60;;;20.60;76.10;;;;;;5019248;28;20029;-86
2021/04/01 09:09:24;;;;;;;8.95;2.30;;;20.70;75.60;;;;;;5036441;28;20392;-87
2021/04/01 09:11:54;;;;;;;4.90;2.22;;;21.20;73.10;;;;;;5019298;28;20028;-86
2021/04/01 09:14:31;;;;;;;9.52;2.38;;;21.30;71.50;;;;;;5019013;28;20025;-86
2021/04/01 09:17:06;;;;;;;8.80;2.30;;;21.30;72.60;;;;;;5018831;28;20022;-86
2021/04/01 09:19:32;;;;;;;10.20;2.20;;;21.10;71.30;;;;;;5018823;28;20025;-86
2021/04/01 09:21:58;;;;;;;8.48;2.42;;;21.00;72.90;;;;;;5018617;28;20112;-86
2021/04/01 09:24:32;;;;;;;10.27;2.33;;;20.60;72.70;;;;;;5019793;28;20032;-86
2021/04/01 09:26:59;;;;;;;14.90;2.65;;;20.40;74.40;;;;;;5021785;28;20025;-86
2021/04/01 09:29:25;;;;;;;12.85;2.70;;;20.20;76.30;;;;;;5049361;28;20484;-87
2021/04/01 09:32:02;;;;;;;11.07;2.90;;;20.20;76.40;;;;;;5056557;28;20096;-86
2021/04/01 09:34:30;;;;;;;9.15;2.95;;;20.30;76.70;;;;;;5055034;28;20051;-86
2021/04/01 09:37:08;;;;;;;13.35;2.78;;;20.10;75.40;;;;;;5054979;28;20495;-86
2021/04/01 09:39:35;;;;;;;14.63;2.90;;;20.20;76.60;;;;;;5056620;28;20437;-85
2021/04/01 09:42:07;;;;;;;5.47;2.45;;;20.20;76.10;;;;;;5054945;28;20032;-86
2021/04/01 09:44:35;;;;;;;4.97;2.60;;;20.00;75.50;;;;;;5055932;28;20029;-85
2021/04/01 09:47:15;;;;;;;10.27;2.90;;;19.80;76.00;;;;;;5054592;28;20021;-86
2021/04/01 09:49:54;;;;;;;6.88;2.83;;;19.80;76.40;;;;;;5055008;28;20025;-86
2021/04/01 09:52:27;;;;;;;9.70;2.67;;;19.90;76.30;;;;;;5054932;28;20025;-86
2021/04/01 09:54:56;;;;;;;15.00;3.00;;;20.20;75.80;;;;;;5054658;28;20392;-86
2021/04/01 09:57:46;;;;;;;15.57;2.72;;;20.30;74.20;;;;;;5054482;28;20382;-86
2021/04/01 10:00:22;;;;;;;9.40;2.50;;;20.60;74.30;;;;;;5054333;28;20517;-86
2021/04/01 10:03:00;;;;;;;9.13;2.38;;;21.10;72.70;;;;;;5054489;28;20059;-86
2021/04/01 10:05:27;;;;;;;11.30;2.45;;;21.30;71.80;;;;;;5054435;28;20025;-86
2021/04/01 10:07:56;;;;;;;9.48;2.53;;;21.80;72.00;;;;;;5053396;28;20052;-87
2021/04/01 10:10:45;;;;;;;13.07;2.63;;;22.10;69.40;;;;;;5056071;28;20025;-88
2021/04/01 10:13:25;;;;;;;12.23;2.60;;;22.20;68.10;;;;;;5055266;28;20021;-86
2021/04/01 10:15:53;;;;;;;9.15;2.08;;;22.30;68.40;;;;;;5054893;28;20107;-86
2021/04/01 10:18:24;;;;;;;9.32;2.08;;;22.40;67.20;;;;;;5054377;28;20535;-87
2021/04/01 10:20:58;;;;;;;10.52;2.30;;;22.70;67.50;;;;;;5054714;28;20025;-87
2021/04/01 10:23:24;;;;;;;13.27;2.40;;;23.00;66.80;;;;;;5054725;28;20021;-86
2021/04/01 10:25:54;;;;;;;8.45;2.40;;;23.30;65.60;;;;;;5055266;28;20041;-86
2021/04/01 10:28:35;;;;;;;9.93;2.67;;;23.20;64.70;;;;;;5053868;28;20053;-85
2021/04/01 10:31:15;;;;;;;10.80;2.50;;;23.30;65.40;;;;;;5054083;28;20033;-86
2021/04/01 10:34:07;;;;;;;9.43;2.22;;;23.60;64.10;;;;;;5054863;28;20017;-86
2021/04/01 10:36:36;;;;;;;9.30;2.40;;;23.80;63.30;;;;;;5017201;28;20060;-86
2021/04/01 10:39:10;;;;;;;8.52;2.42;;;24.10;62.10;;;;;;5054702;28;20079;-86
2021/04/01 10:41:48;;;;;;;8.30;2.05;;;24.10;60.90;;;;;;5054702;28;20049;-86
2021/04/01 10:44:16;;;;;;;12.07;1.88;;;24.20;61.40;;;;;;5055190;28;20025;-86
2021/04/01 10:47:03;;;;;;;7.10;2.20;;;24.40;61.00;;;;;;5054044;28;20059;-87
2021/04/01 10:49:36;;;;;;;6.07;2.33;;;24.20;60.60;;;;;;5052189;28;20033;-86
2021/04/01 10:52:11;;;;;;;9.05;2.25;;;24.30;60.30;;;;;;5053320;28;20028;-86
2021/04/01 10:54:45;;;;;;;9.98;2.22;;;24.60;60.30;;;;;;5052709;28;20028;-86
2021/04/01 10:57:26;;;;;;;11.18;2.38;;;24.90;59.00;;;;;;5052571;28;20025;-86
2021/04/01 10:59:52;;;;;;;8.15;2.22;;;25.30;58.20;;;;;;5053606;28;20025;-84
2021/04/01 11:02:23;;;;;;;7.75;2.45;;;25.10;57.90;;;;;;5052827;28;20381;-84
2021/04/01 11:04:57;;;;;;;10.00;2.08;;;25.50;57.60;;;;;;5052528;28;20033;-85
2021/04/01 11:07:24;;;;;;;11.52;2.33;;;26.00;56.50;;;;;;5052724;28;20033;-85
2021/04/01 11:09:51;;;;;;;11.48;2.90;;;26.00;55.80;;;;;;5053414;28;20037;-84
2021/04/01 11:12:19;;;;;;;15.07;2.00;;;26.10;55.20;;;;;;5056314;28;20024;-84
2021/04/01 11:14:53;;;;;;;8.20;2.13;;;25.00;56.60;;;;;;5053271;28;20017;-86
2021/04/01 11:17:24;;;;;;;6.43;2.13;;;25.70;56.40;;;;;;5052564;28;20025;-85
2021/04/01 11:19:56;;;;;;;4.07;1.77;;;26.50;55.70;;;;;;5052085;28;20029;-86
2021/04/01 11:22:22;;;;;;;4.47;1.40;;;26.50;53.40;;;;;;5052508;28;20028;-85
2021/04/01 11:24:47;;;;;;;5.60;1.75;;;25.70;54.10;;;;;;5052634;28;20465;-86
2021/04/01 11:27:17;;;;;;;3.67;1.65;;;26.10;53.00;;;;;;5052555;28;20111;-86
2021/04/01 11:29:57;;;;;;;6.03;1.63;;;26.60;52.30;;;;;;5051936;28;20072;-86
2021/04/01 11:32:28;;;;;;;5.95;1.73;;;26.70;51.10;;;;;;5053586;28;20033;-86
2021/04/01 11:34:57;;;;;;;7.60;1.67;;;25.90;51.60;;;;;;5052131;28;20021;-86
2021/04/01 11:37:26;;;;;;;5.35;1.23;;;25.80;52.30;;;;;;5052242;28;20164;-85
2021/04/01 11:40:07;;;;;;;6.47;1.77;;;25.70;52.30;;;;;;5053395;28;20039;-86
2021/04/01 11:42:34;;;;;;;6.32;1.60;;;26.10;51.90;;;;;;5052618;28;20074;-86
2021/04/01 11:45:05;;;;;;;2.88;1.30;;;26.90;51.30;;;;;;5052310;28;20032;-86
2021/04/01 11:47:32;;;;;;;4.30;1.40;;;27.30;49.80;;;;;;5052671;28;20484;-87
2021/04/01 11:50:05;;;;;;;5.43;1.40;;;26.80;49.50;;;;;;5052546;28;20380;-85
2021/04/01 11:52:31;;;;;;;7.30;1.40;;;26.10;50.60;;;;;;5052320;28;20027;-85
2021/04/01 11:55:07;;;;;;;3.15;1.48;;;24.90;53.10;;;;;;5052158;28;20075;-85
2021/04/01 11:57:33;;;;;;;2.97;1.20;;;24.20;54.50;;;;;;5051882;28;20029;-86
2021/04/01 12:00:08;;;;;;;3.05;1.40;;;25.20;53.30;;;;;;5051958;28;20025;-86
2021/04/01 12:02:47;;;;;;;3.85;1.20;;;26.50;51.40;;;;;;5053231;28;20020;-86
2021/04/01 12:05:13;;;;;;;3.92;1.13;;;27.30;48.60;;;;;;5051954;28;20108;-86
2021/04/01 12:07:39;;;;;;;4.18;1.30;;;27.80;49.50;;;;;;5052183;28;20071;-86
2021/04/01 12:10:06;;;;;;;6.15;1.50;;;28.40;47.70;;;;;;5051964;28;20021;-86
2021/04/01 12:12:33;;;;;;;4.07;1.30;;;28.60;48.20;;;;;;5051851;28;20388;-86
2021/04/01 12:15:00;;;;;;;6.90;1.58;;;28.20;48.50;;;;;;5051873;28;20017;-86
2021/04/01 12:17:38;;;;;;;6.82;1.60;;;28.60;48.00;;;;;;5051690;28;20022;-85
2021/04/01 12:20:09;;;;;;;2.83;1.20;;;26.40;47.80;;;;;;5053329;28;20071;-86
2021/04/01 12:22:41;;;;;;;8.57;1.50;;;25.40;50.20;;;;;;5051824;28;20075;-85
2021/04/01 12:25:10;;;;;;;5.50;1.30;;;25.90;50.50;;;;;;5051772;28;20443;-85
2021/04/01 12:27:47;;;;;;;8.23;1.45;;;26.90;49.00;;;;;;5051514;28;20533;-85
2021/04/01 12:30:21;;;;;;;4.75;1.27;;;27.00;47.20;;;;;;5016121;28;20424;-85
2021/04/01 12:32:48;;;;;;;2.80;1.30;;;27.30;47.10;;;;;;5036999;28;20052;-86
2021/04/01 12:35:15;;;;;;;7.20;1.45;;;28.00;47.50;;;;;;5019148;28;20053;-87
2021/04/01 12:37:43;;;;;;;4.10;1.05;;;27.00;45.20;;;;;;5019123;28;20080;-85
2021/04/01 12:40:18;;;;;;;5.30;1.25;;;26.90;46.70;;;;;;5036778;28;20049;-85
2021/04/01 12:42:45;;;;;;;3.40;1.10;;;27.50;46.00;;;;;;5019181;28;20017;-87
2021/04/01 12:45:19;;;;;;;3.08;1.00;;;28.30;44.60;;;;;;5019346;28;20056;-87
2021/04/01 12:47:46;;;;;;;6.28;0.95;;;29.40;42.60;;;;;;5018799;28;20038;-85
2021/04/01 12:50:13;;;;;;;1.92;0.73;;;30.40;40.60;;;;;;5019567;28;20026;-87
2021/04/01 12:52:43;;;;;;;2.90;1.10;;;30.30;38.20;;;;;;5018790;28;20090;-85
2021/04/01 12:55:11;;;;;;;4.38;1.27;;;30.50;40.30;;;;;;5018520;28;20022;-85
2021/04/01 12:57:41;;;;;;;6.20;1.50;;;30.30;42.00;;;;;;5036175;28;20101;-86
2021/04/01 13:00:09;;;;;;;5.07;1.52;;;30.50;42.40;;;;;;5036168;28;20029;-85
2021/04/01 13:02:35;;;;;;;5.28;1.50;;;30.60;43.30;;;;;;5018315;28;20026;-84
2021/04/01 13:05:03;;;;;;;6.95;1.48;;;30.70;43.30;;;;;;5018316;28;20022;-85
2021/04/01 13:07:34;;;;;;;9.85;1.50;;;30.80;42.40;;;;;;5018227;28;20030;-85
2021/04/01 13:10:45;;;;;;;9.75;1.63;;;30.90;42.20;;;;;;5018259;28;20484;-82
2021/04/01 13:12:46;;;;;;;7.20;1.35;;;30.70;42.00;;;;;;5025419;28;20112;-83
2021/04/01 13:15:12;;;;;;;6.18;2.05;;;31.10;41.40;;;;;;5018147;28;20053;-83
2021/04/01 13:17:38;;;;;;;5.10;1.80;;;31.50;41.70;;;;;;5018533;28;20488;-83
2021/04/01 13:20:04;;;;;;;5.28;1.50;;;30.80;42.10;;;;;;5035776;28;20018;-83
2021/04/01 13:22:44;;;;;;;7.50;1.50;;;30.90;41.00;;;;;;5017924;28;20551;-86
2021/04/01 13:25:14;;;;;;;4.60;1.42;;;31.30;41.10;;;;;;5017915;28;20030;-82
2021/04/01 13:27:45;;;;;;;6.88;1.80;;;30.60;40.80;;;;;;5035310;28;20112;-83
2021/04/01 13:30:12;;;;;;;6.63;1.70;;;30.30;41.60;;;;;;5035558;28;20473;-85
2021/04/01 13:32:42;;;;;;;7.50;1.50;;;30.70;41.50;;;;;;5018009;28;20022;-84
2021/04/01 13:35:19;;;;;;;5.60;1.42;;;30.30;41.20;;;;;;5017835;28;20477;-86
2021/04/01 13:38:02;;;;;;;11.23;2.17;;;29.50;43.60;;;;;;5018606;28;20017;-85
2021/04/01 13:40:28;;;;;;;4.35;1.45;;;28.80;43.30;;;;;;5017681;28;20104;-86
2021/04/01 13:42:56;;;;;;;7.10;1.95;;;27.70;45.10;;;;;;5035134;28;20101;-85
2021/04/01 13:45:25;;;;;;;12.63;1.90;;;27.10;45.90;;;;;;5017565;28;20028;-83
2021/04/01 13:47:57;;;;;;;11.90;2.10;;;26.70;46.40;;;;;;5017449;28;20116;-87
2021/04/01 13:50:26;;;;;;;7.03;1.70;;;27.00;46.10;;;;;;5017503;28;20080;-85
2021/04/01 13:55:39;;;;;;;4.07;1.50;;;27.60;44.90;;;;;;5035733;28;20109;-82
2021/04/01 14:09:23;;;;;;;4.57;1.45;;;27.30;44.10;;;;;;5035091;28;20155;-86
2021/04/01 14:11:49;;;;;;;10.90;1.73;;;26.80;44.20;;;;;;5034811;28;20100;-86
2021/04/01 14:14:15;;;;;;;10.20;2.35;;;27.20;45.00;;;;;;5017006;28;20037;-85
2021/04/01 14:16:41;;;;;;;10.23;2.22;;;26.90;45.20;;;;;;5016882;28;20025;-85
2021/04/01 14:19:09;;;;;;;7.97;2.30;;;26.90;45.90;;;;;;5016874;28;20492;-86
2021/04/01 14:21:35;;;;;;;9.68;2.25;;;27.10;45.90;;;;;;5016875;28;20025;-85
2021/04/01 14:24:16;;;;;;;10.40;2.05;;;26.80;45.80;;;;;;5034824;28;20465;-86
2021/04/01 14:26:55;;;;;;;4.90;1.88;;;26.40;45.60;;;;;;5016823;28;20040;-86
2021/04/01 14:29:20;;;;;;;7.90;2.38;;;26.50;45.50;;;;;;5041217;28;20135;-86
2021/04/01 14:31:46;;;;;;;9.57;2.50;;;26.80;44.50;;;;;;5053131;28;20107;-82
2021/04/01 14:34:13;;;;;;;6.60;1.80;;;27.40;44.00;;;;;;5053005;28;20560;-84
2021/04/01 14:36:38;;;;;;;9.63;2.17;;;27.70;44.80;;;;;;5052925;28;20111;-86
2021/04/01 14:39:06;;;;;;;8.07;1.95;;;28.20;43.40;;;;;;5052940;28;20102;-84
2021/04/01 14:41:45;;;;;;;9.65;2.08;;;28.10;43.60;;;;;;5052881;28;20025;-85
2021/04/01 14:44:18;;;;;;;13.68;2.58;;;28.30;43.70;;;;;;5052962;28;20483;-86
2021/04/01 14:46:44;;;;;;;11.50;2.35;;;28.00;43.40;;;;;;5052806;28;20048;-86
2021/04/01 14:49:10;;;;;;;7.63;2.10;;;27.80;44.40;;;;;;5052652;28;20040;-85
2021/04/01 14:51:36;;;;;;;8.70;2.08;;;27.70;43.50;;;;;;5052896;28;20029;-83